RJKN(METAR)
07/27 16:00
METAR RJKN 270700Z AUTO 10010KT 9999 FEW017 SCT023 30/26 Q0998 RMK
A2948=
戻る
トップページへ戻る
IMOC Co,.Ltd.